Time;durP1;ratioP1;P1;durP2;ratioP2;P2;SDS_P1;SDS_P2;PMS_P1;PMS_P2;Temp;Humidity;BMP_temperature;BMP_pressure;BME280_temperature;BME280_humidity;BME280_pressure;Samples;Min_cycle;Max_cycle;Signal;HPM_P1;HPM_P2
2022/06/06 00:00:50;;;;;;;5.57;3.03;;;;;16.60;96399.00;;;;8377487;28;20278;-73
2022/06/06 00:04:54;;;;;;;5.72;3.03;;;;;16.40;96394.00;;;;8361394;28;20232;-73
2022/06/06 00:08:57;;;;;;;4.32;2.67;;;;;16.40;96391.00;;;;8363514;28;20715;-74
2022/06/06 00:13:02;;;;;;;2.90;2.63;;;;;16.30;96388.00;;;;8369142;28;20631;-72
2022/06/06 00:17:06;;;;;;;13.00;2.78;;;;;16.20;96388.00;;;;8373715;28;20680;-71
2022/06/06 00:21:11;;;;;;;3.00;2.70;;;;;16.10;96389.00;;;;8366276;28;20230;-70
2022/06/06 00:25:15;;;;;;;6.35;2.97;;;;;16.10;96392.00;;;;8369197;28;20212;-71
2022/06/06 00:29:21;;;;;;;3.83;2.83;;;;;16.00;96384.00;;;;8368555;28;20200;-73
2022/06/06 00:37:46;;;;;;;8.15;3.10;;;;;15.90;96402.00;;;;8364555;28;20195;-72
2022/06/06 00:41:51;;;;;;;4.43;3.00;;;;;15.90;96402.00;;;;8376976;28;20229;-73
2022/06/06 00:45:57;;;;;;;6.68;3.15;;;;;15.80;96401.00;;;;8372446;28;20196;-72
2022/06/06 00:50:07;;;;;;;7.90;3.28;;;;;15.70;96405.00;;;;8376598;28;20211;-71
2022/06/06 00:54:10;;;;;;;7.65;3.53;;;;;15.70;96409.00;;;;8376146;28;20220;-70
2022/06/06 00:58:17;;;;;;;7.88;3.25;;;;;15.60;96402.00;;;;8376205;28;20192;-71
2022/06/06 01:02:22;;;;;;;4.93;3.17;;;;;15.50;96414.00;;;;8379407;28;20241;-74
2022/06/06 01:06:29;;;;;;;10.82;3.40;;;;;15.40;96417.00;;;;8380720;28;20207;-73
2022/06/06 01:10:32;;;;;;;6.57;3.30;;;;;15.30;96421.00;;;;8371997;28;20226;-71
2022/06/06 01:14:39;;;;;;;6.95;3.15;;;;;15.20;96419.00;;;;8377468;28;20205;-73
2022/06/06 01:18:59;;;;;;;7.28;3.47;;;;;15.20;96418.00;;;;8377473;28;20214;-71
2022/06/06 01:23:33;;;;;;;4.95;3.28;;;;;15.10;96418.00;;;;8379218;28;20266;-73
2022/06/06 01:27:47;;;;;;;9.27;3.45;;;;;15.00;96417.00;;;;8386327;28;20203;-73
2022/06/06 01:31:57;;;;;;;9.65;3.35;;;;;14.90;96424.00;;;;8378916;28;20200;-71
2022/06/06 01:36:02;;;;;;;10.50;2.97;;;;;14.70;96421.00;;;;8373935;28;20251;-73
2022/06/06 01:40:08;;;;;;;7.13;3.25;;;;;14.60;96418.00;;;;8378649;28;20208;-71
2022/06/06 01:44:20;;;;;;;12.43;4.20;;;;;14.50;96420.00;;;;8382099;28;20710;-71
2022/06/06 01:48:29;;;;;;;8.32;3.95;;;;;14.50;96414.00;;;;8380654;28;20284;-75
2022/06/06 01:52:50;;;;;;;3.47;3.13;;;;;14.40;96409.00;;;;8384382;28;20227;-74
2022/06/06 01:56:54;;;;;;;13.35;3.30;;;;;14.30;96415.00;;;;8374778;28;20716;-72
2022/06/06 02:00:57;;;;;;;10.23;4.20;;;;;14.10;96419.00;;;;8376738;28;20222;-75
2022/06/06 02:05:02;;;;;;;79.55;7.10;;;;;14.00;96423.00;;;;8371611;28;20968;-72
2022/06/06 02:09:05;;;;;;;8.13;4.30;;;;;14.00;96414.00;;;;8377094;28;20196;-73
2022/06/06 02:13:08;;;;;;;13.13;4.57;;;;;14.20;96416.00;;;;8377638;28;20198;-69
2022/06/06 02:17:11;;;;;;;10.82;3.72;;;;;14.20;96415.00;;;;8380654;28;20203;-71
2022/06/06 02:21:16;;;;;;;6.18;3.85;;;;;14.20;96416.00;;;;8374670;28;20225;-76
2022/06/06 02:25:20;;;;;;;8.60;4.40;;;;;14.10;96411.00;;;;8380739;28;20197;-72
2022/06/06 02:29:23;;;;;;;19.90;4.70;;;;;14.10;96419.00;;;;8383099;28;20205;-76
2022/06/06 02:33:26;;;;;;;16.45;3.90;;;;;14.00;96413.00;;;;8379292;28;20210;-70
2022/06/06 02:37:31;;;;;;;121.07;6.15;;;;;13.90;96418.00;;;;8372810;28;20879;-73
2022/06/06 02:41:34;;;;;;;26.85;3.97;;;;;13.80;96420.00;;;;8376575;28;20226;-72
2022/06/06 02:45:38;;;;;;;342.80;14.70;;;;;13.80;96418.00;;;;8384626;28;20898;-75
2022/06/06 02:49:44;;;;;;;55.55;5.63;;;;;13.70;96420.00;;;;8383499;28;20207;-74
2022/06/06 02:53:49;;;;;;;9.23;4.13;;;;;13.60;96425.00;;;;8378456;28;20226;-73
2022/06/06 02:57:53;;;;;;;20.35;5.47;;;;;13.60;96429.00;;;;8376378;28;20645;-74
2022/06/06 03:01:57;;;;;;;143.75;8.45;;;;;13.60;96438.00;;;;8454638;22;20252;-73
2022/06/06 03:06:17;;;;;;;332.45;11.10;;;;;13.50;96443.00;;;;8365643;28;20292;-74
2022/06/06 03:10:36;;;;;;;198.63;9.52;;;;;13.40;96441.00;;;;8377636;28;20199;-70
2022/06/06 03:15:07;;;;;;;119.57;7.07;;;;;13.30;96444.00;;;;8383491;28;20287;-71
2022/06/06 03:24:05;;;;;;;95.97;5.43;;;;;13.20;96440.00;;;;8391817;28;20228;-70
2022/06/06 03:28:18;;;;;;;36.72;3.70;;;;;13.10;96448.00;;;;8382332;28;21005;-71
2022/06/06 03:32:36;;;;;;;14.95;3.80;;;;;13.20;96448.00;;;;8398878;28;20242;-72
2022/06/06 03:36:44;;;;;;;73.70;5.00;;;;;13.20;96458.00;;;;8394539;28;20546;-73
2022/06/06 03:40:59;;;;;;;43.05;4.53;;;;;13.10;96460.00;;;;8393349;28;20240;-71
2022/06/06 03:45:16;;;;;;;7.97;3.20;;;;;13.10;96466.00;;;;8401287;28;20231;-72
2022/06/06 03:49:33;;;;;;;39.20;4.35;;;;;13.20;96471.00;;;;8386172;28;20228;-75
2022/06/06 03:53:44;;;;;;;98.45;6.93;;;;;13.30;96484.00;;;;8391433;28;20207;-72
2022/06/06 03:57:51;;;;;;;10.18;4.97;;;;;13.60;96478.00;;;;8386974;28;20256;-72
2022/06/06 04:01:58;;;;;;;8.65;4.38;;;;;13.90;96496.00;;;;8397548;28;20853;-72
2022/06/06 04:06:02;;;;;;;24.25;5.88;;;;;14.30;96495.00;;;;8397131;28;20220;-70
2022/06/06 04:10:08;;;;;;;6.70;4.90;;;;;14.80;96499.00;;;;8398572;28;20195;-74
2022/06/06 04:14:24;;;;;;;6.85;4.28;;;;;15.30;96499.00;;;;8392003;28;20238;-72
2022/06/06 04:18:41;;;;;;;8.65;5.07;;;;;15.90;96503.00;;;;8386014;28;20636;-70
2022/06/06 04:22:57;;;;;;;9.18;5.10;;;;;16.60;96498.00;;;;8374818;28;20730;-72
2022/06/06 04:27:08;;;;;;;8.77;4.65;;;;;17.30;96500.00;;;;8378115;28;20307;-73
2022/06/06 04:31:19;;;;;;;6.47;4.15;;;;;17.90;96501.00;;;;8389712;28;20294;-74
2022/06/06 04:35:30;;;;;;;12.98;3.72;;;;;18.40;96495.00;;;;8382198;28;20680;-77
2022/06/06 04:39:39;;;;;;;6.95;4.60;;;;;18.50;96494.00;;;;8382412;28;20347;-81
2022/06/06 04:43:48;;;;;;;8.45;4.10;;;;;18.90;96499.00;;;;8385167;28;20935;-73
2022/06/06 04:47:52;;;;;;;8.10;3.85;;;;;19.30;96502.00;;;;8383043;28;20212;-77
2022/06/06 04:51:59;;;;;;;8.85;3.72;;;;;19.70;96511.00;;;;8392611;28;20217;-74
2022/06/06 04:56:02;;;;;;;4.85;4.13;;;;;19.90;96514.00;;;;8387010;28;20283;-74
2022/06/06 05:00:08;;;;;;;14.00;5.82;;;;;20.10;96514.00;;;;8385855;28;20207;-80
2022/06/06 05:04:11;;;;;;;7.88;4.18;;;;;20.10;96519.00;;;;8380021;28;20266;-81
2022/06/06 05:08:29;;;;;;;5.07;4.22;;;;;20.00;96511.00;;;;8380329;28;20200;-73
2022/06/06 05:13:05;;;;;;;7.93;3.95;;;;;19.80;96518.00;;;;8391850;28;20857;-76
2022/06/06 05:17:23;;;;;;;6.15;3.92;;;;;19.90;96536.00;;;;8384472;28;20286;-74
2022/06/06 05:21:45;;;;;;;4.22;3.80;;;;;19.90;96541.00;;;;8389158;28;20204;-73
2022/06/06 05:26:04;;;;;;;6.35;3.47;;;;;19.90;96541.00;;;;8371951;28;20818;-71
2022/06/06 05:30:13;;;;;;;6.35;3.92;;;;;19.90;96544.00;;;;8380092;28;20196;-75
2022/06/06 05:34:21;;;;;;;4.35;3.70;;;;;20.00;96549.00;;;;8382954;28;20204;-74
2022/06/06 05:38:42;;;;;;;4.93;3.97;;;;;20.00;96543.00;;;;8393750;28;20748;-70
2022/06/06 05:43:06;;;;;;;5.50;3.97;;;;;20.30;96540.00;;;;8378580;28;20238;-73
2022/06/06 05:47:19;;;;;;;5.32;3.72;;;;;20.60;96544.00;;;;8389787;28;20330;-74
2022/06/06 05:51:35;;;;;;;4.10;3.70;;;;;21.00;96547.00;;;;8390951;28;20624;-76
2022/06/06 05:55:56;;;;;;;4.68;3.70;;;;;21.30;96539.00;;;;8386076;28;20196;-73
2022/06/06 06:00:17;;;;;;;4.85;3.88;;;;;21.80;96547.00;;;;8380057;28;20211;-75
2022/06/06 06:04:39;;;;;;;4.63;4.22;;;;;22.30;96541.00;;;;8378531;28;20596;-72
2022/06/06 06:09:03;;;;;;;5.85;4.40;;;;;22.50;96543.00;;;;8385669;28;20670;-76
2022/06/06 06:13:21;;;;;;;5.13;4.40;;;;;22.70;96536.00;;;;8391613;28;20260;-74
2022/06/06 06:17:28;;;;;;;5.43;4.60;;;;;22.90;96539.00;;;;8382969;28;20228;-72
2022/06/06 06:21:38;;;;;;;7.50;5.00;;;;;22.90;96534.00;;;;8393651;28;20683;-75
2022/06/06 06:25:45;;;;;;;8.82;5.20;;;;;22.60;96541.00;;;;8385741;28;20748;-74
2022/06/06 06:29:48;;;;;;;5.90;4.93;;;;;23.00;96535.00;;;;8385955;28;20202;-79
2022/06/06 06:34:08;;;;;;;5.95;4.85;;;;;23.30;96529.00;;;;8384206;28;20208;-75
2022/06/06 06:38:44;;;;;;;6.20;4.78;;;;;23.70;96526.00;;;;8388579;28;20204;-75
2022/06/06 06:43:03;;;;;;;5.47;4.95;;;;;24.00;96531.00;;;;8384338;28;20660;-79
2022/06/06 06:47:11;;;;;;;7.43;4.93;;;;;23.70;96529.00;;;;8408168;28;20196;-79
2022/06/06 06:51:21;;;;;;;6.93;5.28;;;;;23.60;96537.00;;;;8390711;28;20196;-72
2022/06/06 06:55:37;;;;;;;6.97;4.68;;;;;24.00;96526.00;;;;8382397;28;20210;-77
2022/06/06 06:59:52;;;;;;;6.20;5.60;;;;;24.40;96526.00;;;;8381343;28;20578;-74
2022/06/06 07:08:51;;;;;;;9.60;5.65;;;;;24.50;96539.00;;;;8398084;28;20620;-73
2022/06/06 07:13:14;;;;;;;8.93;5.60;;;;;24.80;96539.00;;;;8379974;28;20589;-82
2022/06/06 07:17:21;;;;;;;7.10;5.00;;;;;24.90;96539.00;;;;8381339;28;20222;-79
2022/06/06 07:21:25;;;;;;;6.38;5.03;;;;;25.10;96540.00;;;;8376584;28;20193;-75
2022/06/06 07:25:33;;;;;;;5.93;4.95;;;;;25.50;96537.00;;;;8386270;28;20324;-77
2022/06/06 07:29:37;;;;;;;8.45;4.72;;;;;25.70;96533.00;;;;8393533;28;20597;-81
2022/06/06 07:33:51;;;;;;;6.07;4.32;;;;;25.90;96545.00;;;;8388646;28;20235;-82
2022/06/06 07:38:09;;;;;;;5.25;4.18;;;;;26.10;96549.00;;;;8389014;28;20211;-78
2022/06/06 07:42:28;;;;;;;7.07;4.80;;;;;26.50;96543.00;;;;8389705;28;20611;-76
2022/06/06 07:46:52;;;;;;;5.30;4.20;;;;;26.10;96553.00;;;;8381086;28;20290;-81
2022/06/06 07:51:06;;;;;;;5.53;4.32;;;;;25.20;96555.00;;;;8391134;28;20193;-78
2022/06/06 07:55:18;;;;;;;10.45;4.88;;;;;25.70;96548.00;;;;8400786;28;20199;-73
2022/06/06 07:59:36;;;;;;;5.18;4.15;;;;;26.50;96551.00;;;;8389578;28;20295;-75
2022/06/06 08:03:50;;;;;;;6.60;4.20;;;;;26.90;96557.00;;;;8398879;28;20250;-69
2022/06/06 08:08:04;;;;;;;4.68;4.03;;;;;26.20;96550.00;;;;8378801;28;20295;-74
2022/06/06 08:12:31;;;;;;;4.13;3.72;;;;;26.00;96555.00;;;;8382922;28;20311;-72
2022/06/06 08:16:43;;;;;;;6.38;4.32;;;;;25.70;96560.00;;;;8380384;28;20200;-71
2022/06/06 08:20:56;;;;;;;4.90;4.18;;;;;25.40;96557.00;;;;8387900;28;20213;-73
2022/06/06 08:25:02;;;;;;;4.10;3.72;;;;;25.70;96560.00;;;;8391231;28;20668;-72
2022/06/06 08:29:10;;;;;;;7.78;3.92;;;;;25.60;96564.00;;;;8388996;28;20233;-73
2022/06/06 08:33:15;;;;;;;4.68;4.20;;;;;25.50;96567.00;;;;8395534;28;20198;-72
2022/06/06 08:37:33;;;;;;;5.25;3.50;;;;;25.70;96565.00;;;;8383473;28;20215;-77
2022/06/06 08:41:59;;;;;;;9.13;4.20;;;;;26.40;96563.00;;;;8375131;28;20244;-71
2022/06/06 08:46:19;;;;;;;6.30;4.30;;;;;26.80;96562.00;;;;8377317;28;20219;-70
2022/06/06 08:50:48;;;;;;;5.38;4.30;;;;;26.70;96563.00;;;;8379386;28;20235;-72
2022/06/06 08:55:24;;;;;;;10.35;4.68;;;;;26.50;96558.00;;;;8381918;28;20322;-73
2022/06/06 09:00:02;;;;;;;4.70;3.90;;;;;26.30;96568.00;;;;8373791;28;20218;-74
2022/06/06 09:04:26;;;;;;;4.95;4.13;;;;;26.60;96568.00;;;;8376061;28;20785;-75
2022/06/06 09:09:07;;;;;;;4.65;4.15;;;;;26.80;96567.00;;;;8376686;28;20208;-73
2022/06/06 09:13:52;;;;;;;4.05;3.72;;;;;26.90;96564.00;;;;8383187;28;20198;-72
2022/06/06 09:18:50;;;;;;;4.30;3.92;;;;;27.70;96561.00;;;;8378835;28;20286;-74
2022/06/06 09:23:30;;;;;;;6.72;3.35;;;;;29.30;96545.00;;;;8263305;28;20206;-79
2022/06/06 09:28:11;;;;;;;3.10;2.90;;;;;30.70;96551.00;;;;8361844;28;20200;-77
2022/06/06 09:32:51;;;;;;;5.35;3.25;;;;;31.60;96553.00;;;;8356873;28;20751;-74
2022/06/06 09:37:06;;;;;;;4.43;3.28;;;;;30.60;96549.00;;;;8385932;28;20709;-70
2022/06/06 09:41:28;;;;;;;4.28;3.40;;;;;29.80;96546.00;;;;8374428;28;20222;-73
2022/06/06 09:45:35;;;;;;;3.25;2.95;;;;;30.60;96545.00;;;;8391127;28;20779;-76
2022/06/06 09:50:06;;;;;;;4.60;2.90;;;;;31.40;96545.00;;;;8389347;28;20833;-75
2022/06/06 09:59:53;;;;;;;4.03;3.30;;;;;31.90;96547.00;;;;8273049;28;20210;-74
2022/06/06 10:04:29;;;;;;;3.78;3.20;;;;;30.80;96542.00;;;;8363261;28;20223;-71
2022/06/06 10:09:23;;;;;;;3.92;3.20;;;;;29.80;96542.00;;;;8332161;28;20220;-73
2022/06/06 10:13:51;;;;;;;3.58;3.08;;;;;29.30;96537.00;;;;8359123;28;20210;-77
2022/06/06 10:18:24;;;;;;;5.35;3.65;;;;;29.00;96538.00;;;;8381801;28;21476;-77
2022/06/06 10:22:54;;;;;;;4.18;3.20;;;;;28.40;96532.00;;;;8384002;28;20223;-74
2022/06/06 10:27:09;;;;;;;5.22;3.63;;;;;28.10;96528.00;;;;8375900;28;20667;-76
2022/06/06 10:31:32;;;;;;;4.05;3.45;;;;;27.50;96538.00;;;;8387074;28;20303;-74
2022/06/06 10:35:53;;;;;;;4.65;3.53;;;;;27.40;96533.00;;;;8384876;28;20215;-73
2022/06/06 10:40:23;;;;;;;3.47;3.28;;;;;27.40;96532.00;;;;8377954;28;20220;-74
2022/06/06 10:44:43;;;;;;;6.65;3.45;;;;;28.10;96527.00;;;;8385987;28;20224;-73
2022/06/06 10:49:16;;;;;;;4.22;3.47;;;;;29.90;96529.00;;;;8377599;28;20639;-77
2022/06/06 10:53:47;;;;;;;3.90;3.22;;;;;31.20;96528.00;;;;8371099;28;20598;-74
2022/06/06 10:58:19;;;;;;;3.65;3.22;;;;;32.30;96526.00;;;;8378518;28;20227;-77
2022/06/06 11:02:49;;;;;;;5.07;3.17;;;;;33.10;96506.00;;;;8384736;28;20250;-75
2022/06/06 11:07:25;;;;;;;3.03;2.75;;;;;33.70;96512.00;;;;8389505;28;20258;-78
2022/06/06 11:11:56;;;;;;;3.10;2.83;;;;;34.20;96514.00;;;;8382864;28;20232;-74
2022/06/06 11:16:31;;;;;;;12.10;3.17;;;;;34.70;96507.00;;;;8387361;28;20283;-70
2022/06/06 11:21:06;;;;;;;3.50;3.20;;;;;34.80;96507.00;;;;8363365;28;20204;-74
2022/06/06 11:25:17;;;;;;;3.05;2.50;;;;;34.80;96506.00;;;;8391123;28;20227;-72
2022/06/06 11:29:58;;;;;;;3.13;2.88;;;;;34.50;96500.00;;;;8375111;28;20200;-72
2022/06/06 11:34:50;;;;;;;3.85;3.30;;;;;34.50;96492.00;;;;8374273;28;20226;-72
2022/06/06 11:39:18;;;;;;;6.03;3.10;;;;;35.50;96490.00;;;;8333425;28;20212;-73
2022/06/06 11:43:48;;;;;;;4.78;2.42;;;;;36.10;96491.00;;;;8394765;28;20894;-73
2022/06/06 11:48:13;;;;;;;3.10;2.70;;;;;35.80;96488.00;;;;8366688;28;20291;-73
2022/06/06 11:53:00;;;;;;;2.60;2.50;;;;;35.30;96484.00;;;;8383134;28;20283;-77
2022/06/06 11:57:25;;;;;;;3.00;2.70;;;;;36.00;96473.00;;;;8387715;28;20206;-78
2022/06/06 12:02:09;;;;;;;2.70;2.50;;;;;36.30;96463.00;;;;8390237;28;20224;-68
2022/06/06 12:06:39;;;;;;;2.95;2.67;;;;;37.10;96472.00;;;;8377363;28;21002;-72
2022/06/06 12:10:58;;;;;;;2.75;2.38;;;;;37.00;96466.00;;;;8374808;28;20629;-74
2022/06/06 12:15:45;;;;;;;3.33;2.55;;;;;35.40;96452.00;;;;8370755;28;20291;-68
2022/06/06 12:20:32;;;;;;;4.32;2.53;;;;;33.30;96459.00;;;;8371098;28;20203;-70
2022/06/06 12:25:07;;;;;;;2.78;2.42;;;;;32.10;96455.00;;;;8364783;28;20224;-73
2022/06/06 12:29:42;;;;;;;3.80;2.60;;;;;31.80;96445.00;;;;8375687;28;20196;-71
2022/06/06 12:33:54;;;;;;;3.00;2.80;;;;;31.80;96435.00;;;;8371590;28;20204;-75
2022/06/06 12:38:11;;;;;;;6.65;3.58;;;;;31.20;96436.00;;;;8372635;28;20198;-71
2022/06/06 12:42:26;;;;;;;3.30;2.83;;;;;30.50;96432.00;;;;8373121;28;20534;-77
2022/06/06 12:47:00;;;;;;;3.22;2.55;;;;;30.00;96433.00;;;;8379385;28;20347;-69
2022/06/06 12:51:14;;;;;;;2.40;2.20;;;;;29.50;96437.00;;;;8378531;28;20239;-69
2022/06/06 12:55:33;;;;;;;4.75;2.72;;;;;29.50;96428.00;;;;8372127;28;20228;-73
2022/06/06 12:59:53;;;;;;;2.50;2.40;;;;;30.00;96427.00;;;;8376905;28;20320;-68
2022/06/06 13:04:16;;;;;;;4.43;2.65;;;;;30.50;96427.00;;;;8382151;28;20739;-72
2022/06/06 13:08:36;;;;;;;3.38;2.38;;;;;30.30;96419.00;;;;8400497;28;20203;-69
2022/06/06 13:12:54;;;;;;;3.47;2.25;;;;;30.30;96410.00;;;;8386379;28;20286;-73
2022/06/06 13:17:09;;;;;;;2.80;2.22;;;;;30.10;96396.00;;;;8390884;28;20218;-72
2022/06/06 13:21:23;;;;;;;2.72;2.03;;;;;31.70;96407.00;;;;8382526;28;20287;-70
2022/06/06 13:25:34;;;;;;;1.95;1.80;;;;;33.30;96407.00;;;;8377014;28;20228;-74
2022/06/06 13:29:39;;;;;;;2.28;2.00;;;;;33.90;96409.00;;;;8379084;28;20639;-71
2022/06/06 13:33:52;;;;;;;2.55;2.03;;;;;34.00;96411.00;;;;8383311;28;20217;-69
2022/06/06 13:38:17;;;;;;;2.88;2.03;;;;;32.50;96407.00;;;;8376744;28;20292;-69
2022/06/06 13:42:36;;;;;;;4.00;2.47;;;;;31.70;96398.00;;;;8388714;28;20200;-78
2022/06/06 13:46:52;;;;;;;2.90;2.33;;;;;31.30;96395.00;;;;8381089;28;20238;-71
2022/06/06 13:51:06;;;;;;;5.28;2.30;;;;;31.30;96400.00;;;;8380600;28;20665;-69
2022/06/06 13:55:26;;;;;;;2.33;2.20;;;;;32.00;96396.00;;;;8384257;28;21026;-68
2022/06/06 13:59:48;;;;;;;2.03;1.92;;;;;33.10;96395.00;;;;8380935;28;20287;-73
2022/06/06 14:04:09;;;;;;;2.60;2.05;;;;;33.60;96388.00;;;;8380655;28;20227;-76
2022/06/06 14:08:15;;;;;;;4.00;2.15;;;;;33.70;96391.00;;;;8381823;28;20220;-69
2022/06/06 14:12:37;;;;;;;2.55;2.35;;;;;33.20;96392.00;;;;8381022;28;20681;-71
2022/06/06 14:16:46;;;;;;;2.83;2.28;;;;;33.10;96385.00;;;;8398196;28;20196;-68
2022/06/06 14:20:55;;;;;;;3.78;2.10;;;;;32.90;96384.00;;;;8405857;28;20205;-70
2022/06/06 14:25:01;;;;;;;2.95;2.20;;;;;33.00;96376.00;;;;8398095;28;20227;-70
2022/06/06 14:29:11;;;;;;;2.13;2.03;;;;;33.50;96370.00;;;;8391710;28;20200;-68
2022/06/06 14:33:25;;;;;;;4.28;1.85;;;;;34.60;96369.00;;;;8396076;28;20203;-72
2022/06/06 14:37:31;;;;;;;4.45;2.33;;;;;34.20;96365.00;;;;8384785;28;20832;-68
2022/06/06 14:41:44;;;;;;;4.03;2.20;;;;;33.20;96365.00;;;;8396466;28;20214;-76
2022/06/06 14:45:54;;;;;;;2.97;2.40;;;;;33.00;96364.00;;;;8395990;28;20238;-69
2022/06/06 14:54:38;;;;;;;2.20;2.00;;;;;31.90;96359.00;;;;8399635;28;20202;-68
2022/06/06 14:58:53;;;;;;;4.00;2.17;;;;;31.40;96359.00;;;;8395241;28;20756;-70
2022/06/06 15:03:02;;;;;;;2.17;2.03;;;;;31.10;96357.00;;;;8412032;28;20986;-73
2022/06/06 15:07:05;;;;;;;2.13;2.00;;;;;31.10;96355.00;;;;8393499;28;20228;-72
2022/06/06 15:11:14;;;;;;;3.28;2.00;;;;;31.10;96361.00;;;;8376376;28;20218;-72
2022/06/06 15:15:19;;;;;;;2.25;1.98;;;;;31.20;96355.00;;;;8383322;28;20638;-73
2022/06/06 15:19:26;;;;;;;2.63;2.00;;;;;31.10;96351.00;;;;8381522;28;20203;-72
2022/06/06 15:23:38;;;;;;;4.22;2.38;;;;;31.10;96348.00;;;;8391528;28;20201;-72
2022/06/06 15:27:59;;;;;;;1.90;1.90;;;;;31.30;96348.00;;;;8386223;28;20315;-72
2022/06/06 15:32:11;;;;;;;1.98;1.80;;;;;31.00;96338.00;;;;8382340;28;20192;-72
2022/06/06 15:36:19;;;;;;;3.33;2.00;;;;;30.60;96338.00;;;;8387869;28;20200;-72
2022/06/06 15:40:29;;;;;;;2.17;2.05;;;;;30.50;96330.00;;;;8401492;28;20735;-72
2022/06/06 15:44:44;;;;;;;1.83;1.73;;;;;31.50;96327.00;;;;8402857;28;20303;-72
2022/06/06 15:48:58;;;;;;;2.10;2.00;;;;;31.70;96318.00;;;;8398761;28;20234;-72
2022/06/06 15:53:24;;;;;;;2.28;1.95;;;;;30.90;96313.00;;;;8403757;28;20200;-71
2022/06/06 15:57:31;;;;;;;2.00;1.90;;;;;31.40;96311.00;;;;8388028;28;20274;-71
2022/06/06 16:01:45;;;;;;;2.17;2.08;;;;;31.50;96313.00;;;;8377886;28;20204;-72
2022/06/06 16:05:51;;;;;;;1.80;1.70;;;;;31.70;96315.00;;;;8382966;28;20346;-71
2022/06/06 16:10:03;;;;;;;4.63;2.25;;;;;31.70;96316.00;;;;8400551;28;20290;-71
2022/06/06 16:14:26;;;;;;;5.82;4.45;;;;;31.60;96309.00;;;;8399311;28;20282;-72
2022/06/06 16:18:36;;;;;;;2.60;2.00;;;;;32.50;96303.00;;;;8382221;28;20857;-72
2022/06/06 16:22:44;;;;;;;2.30;2.10;;;;;33.50;96297.00;;;;8375785;28;22045;-72
2022/06/06 16:26:56;;;;;;;1.95;1.85;;;;;34.20;96299.00;;;;8386008;28;20234;-72
2022/06/06 16:31:01;;;;;;;4.72;2.22;;;;;34.30;96295.00;;;;8378290;28;20556;-72
2022/06/06 16:35:32;;;;;;;2.45;2.25;;;;;34.00;96298.00;;;;8391593;28;20562;-72
2022/06/06 16:39:49;;;;;;;2.45;1.90;;;;;33.40;96299.00;;;;8381461;28;20234;-72
2022/06/06 16:48:52;;;;;;;2.65;2.42;;;;;31.50;96292.00;;;;8382072;28;20224;-71
2022/06/06 16:53:14;;;;;;;2.10;2.00;;;;;31.20;96293.00;;;;8382874;28;20206;-72
2022/06/06 16:57:24;;;;;;;2.95;2.13;;;;;31.00;96286.00;;;;8373141;28;20303;-73
2022/06/06 17:01:42;;;;;;;3.20;2.22;;;;;30.70;96293.00;;;;8386009;28;20709;-72
2022/06/06 17:10:15;;;;;;;1.95;1.83;;;;;30.00;96297.00;;;;8371432;28;20207;-69
2022/06/06 17:14:23;;;;;;;2.63;2.13;;;;;29.40;96294.00;;;;8390223;28;20196;-71
2022/06/06 17:19:00;;;;;;;6.53;2.20;;;;;28.90;96305.00;;;;8379627;28;20191;-73
2022/06/06 17:23:12;;;;;;;3.78;2.30;;;;;28.40;96300.00;;;;8378467;28;20981;-70
2022/06/06 17:27:57;;;;;;;2.30;2.20;;;;;28.00;96295.00;;;;8380008;28;22842;-74
2022/06/06 17:32:12;;;;;;;2.88;2.63;;;;;27.60;96303.00;;;;8301289;28;20196;-69
2022/06/06 17:36:26;;;;;;;4.03;3.22;;;;;27.20;96294.00;;;;8382137;28;20227;-72
2022/06/06 17:40:43;;;;;;;4.45;2.40;;;;;26.90;96296.00;;;;8382151;28;20827;-71
2022/06/06 17:44:56;;;;;;;3.63;2.25;;;;;26.60;96295.00;;;;8384152;28;20207;-73
2022/06/06 17:49:21;;;;;;;4.05;2.45;;;;;26.30;96301.00;;;;8384948;28;20553;-73
2022/06/06 17:53:46;;;;;;;5.13;2.85;;;;;25.90;96302.00;;;;8384907;28;20213;-72
2022/06/06 17:57:59;;;;;;;2.95;2.53;;;;;25.60;96305.00;;;;8360338;28;20205;-73
2022/06/06 18:02:52;;;;;;;2.33;2.08;;;;;25.20;96315.00;;;;8379510;28;20211;-71
2022/06/06 18:07:13;;;;;;;4.45;3.22;;;;;24.80;96309.00;;;;8380521;28;20790;-71
2022/06/06 18:11:23;;;;;;;2.72;2.40;;;;;24.50;96301.00;;;;8377882;28;20193;-69
2022/06/06 18:15:46;;;;;;;4.38;2.45;;;;;24.20;96304.00;;;;8384209;28;20292;-69
2022/06/06 18:19:51;;;;;;;3.28;2.50;;;;;24.00;96307.00;;;;8378110;28;20637;-68
2022/06/06 18:23:58;;;;;;;4.20;2.33;;;;;23.80;96307.00;;;;8384121;28;20817;-70
2022/06/06 18:28:02;;;;;;;2.50;2.10;;;;;23.70;96316.00;;;;8378153;28;20246;-70
2022/06/06 18:32:13;;;;;;;3.63;2.47;;;;;23.60;96303.00;;;;8384846;28;20216;-70
2022/06/06 18:36:18;;;;;;;2.60;2.38;;;;;23.40;96303.00;;;;8378579;28;21116;-70
2022/06/06 18:40:27;;;;;;;2.60;2.40;;;;;23.20;96306.00;;;;8375973;28;20283;-70
2022/06/06 18:44:32;;;;;;;7.10;2.63;;;;;23.10;96305.00;;;;8379217;28;20652;-70
2022/06/06 18:49:15;;;;;;;3.80;2.53;;;;;23.00;96305.00;;;;8378020;28;20252;-70
2022/06/06 18:53:25;;;;;;;5.38;2.60;;;;;23.00;96302.00;;;;8375077;28;20204;-70
2022/06/06 18:57:31;;;;;;;5.97;2.92;;;;;22.90;96304.00;;;;8372927;28;20733;-69
2022/06/06 19:01:38;;;;;;;3.13;2.75;;;;;22.80;96308.00;;;;8376101;28;20196;-72
2022/06/06 19:05:42;;;;;;;6.32;2.65;;;;;22.80;96304.00;;;;8382371;28;20567;-69
2022/06/06 19:10:00;;;;;;;6.47;2.30;;;;;22.70;96310.00;;;;8386160;28;20231;-71
2022/06/06 19:14:15;;;;;;;5.20;2.67;;;;;22.60;96313.00;;;;8380998;28;20275;-69
2022/06/06 19:18:25;;;;;;;3.03;2.80;;;;;22.40;96305.00;;;;8380998;28;20243;-71
2022/06/06 19:22:31;;;;;;;3.72;2.95;;;;;22.30;96314.00;;;;8382539;28;20287;-68
2022/06/06 19:26:43;;;;;;;5.63;2.40;;;;;22.20;96317.00;;;;8383977;28;20196;-69
2022/06/06 19:30:48;;;;;;;2.85;2.65;;;;;22.20;96315.00;;;;8381018;28;20204;-70
2022/06/06 19:34:54;;;;;;;2.70;2.50;;;;;22.10;96313.00;;;;8371312;28;20251;-70
2022/06/06 19:39:21;;;;;;;3.05;2.40;;;;;22.00;96316.00;;;;8383213;28;20199;-72
2022/06/06 19:43:28;;;;;;;5.13;2.47;;;;;22.00;96315.00;;;;8380283;28;20562;-69
2022/06/06 19:47:35;;;;;;;8.98;2.72;;;;;21.90;96317.00;;;;8382641;28;20707;-71
2022/06/06 19:51:41;;;;;;;7.53;2.90;;;;;21.80;96315.00;;;;8370468;28;20655;-71
2022/06/06 19:55:50;;;;;;;4.18;2.88;;;;;21.80;96325.00;;;;8376249;28;20646;-69
2022/06/06 19:59:58;;;;;;;3.17;2.97;;;;;21.70;96323.00;;;;8380791;28;20291;-71
2022/06/06 20:04:07;;;;;;;3.05;2.83;;;;;21.60;96321.00;;;;8376462;28;20922;-69
2022/06/06 20:08:19;;;;;;;3.60;3.08;;;;;21.50;96324.00;;;;8383584;28;20228;-70
2022/06/06 20:12:22;;;;;;;3.08;2.88;;;;;21.50;96324.00;;;;8383651;28;20200;-69
2022/06/06 20:16:33;;;;;;;4.00;3.25;;;;;21.50;96317.00;;;;8369646;28;20271;-71
2022/06/06 20:20:44;;;;;;;4.18;3.03;;;;;21.40;96321.00;;;;8390649;28;20240;-72
2022/06/06 20:24:51;;;;;;;2.60;2.50;;;;;21.40;96312.00;;;;8388682;28;20211;-71
2022/06/06 20:29:01;;;;;;;3.13;2.92;;;;;21.40;96316.00;;;;8391694;28;20223;-72
2022/06/06 20:33:32;;;;;;;4.82;2.80;;;;;21.30;96329.00;;;;8382975;28;20200;-69
2022/06/06 20:37:35;;;;;;;8.70;3.00;;;;;21.30;96329.00;;;;8376716;28;20207;-72
2022/06/06 20:41:41;;;;;;;3.60;3.30;;;;;21.30;96325.00;;;;8379927;28;20234;-69
2022/06/06 20:45:50;;;;;;;7.05;4.07;;;;;20.90;96326.00;;;;8392839;28;20202;-68
2022/06/06 20:49:57;;;;;;;7.22;4.10;;;;;20.20;96323.00;;;;8394713;28;20688;-68
2022/06/06 20:54:03;;;;;;;10.60;3.63;;;;;19.60;96314.00;;;;8390403;28;20291;-67
2022/06/06 20:58:11;;;;;;;5.70;3.50;;;;;19.30;96312.00;;;;8380306;28;20634;-66
2022/06/06 21:02:14;;;;;;;8.38;3.75;;;;;19.10;96316.00;;;;8381875;28;20597;-67
2022/06/06 21:06:20;;;;;;;4.05;3.60;;;;;19.10;96316.00;;;;8385666;28;20257;-69
2022/06/06 21:10:27;;;;;;;5.72;3.90;;;;;18.90;96305.00;;;;8404840;28;20238;-67
2022/06/06 21:14:30;;;;;;;4.93;3.80;;;;;18.60;96302.00;;;;8394106;28;20203;-70
2022/06/06 21:18:34;;;;;;;6.75;3.88;;;;;18.60;96311.00;;;;8408066;28;20781;-70
2022/06/06 21:22:38;;;;;;;11.23;3.95;;;;;18.50;96319.00;;;;8393766;28;20291;-71
2022/06/06 21:26:46;;;;;;;8.43;4.25;;;;;18.30;96340.00;;;;8403506;28;20829;-74
2022/06/06 21:30:49;;;;;;;5.63;4.20;;;;;18.10;96357.00;;;;8396296;28;20223;-71
2022/06/06 21:34:52;;;;;;;6.05;4.90;;;;;18.00;96331.00;;;;8410059;28;20649;-71
2022/06/06 21:38:57;;;;;;;9.15;4.63;;;;;17.90;96319.00;;;;8410414;28;20210;-71
2022/06/06 21:43:00;;;;;;;6.00;5.20;;;;;17.80;96313.00;;;;8394275;28;20218;-68
2022/06/06 21:47:04;;;;;;;6.38;4.93;;;;;17.70;96315.00;;;;8411453;28;20279;-67